sensor_id;sensor_type;location;lat;lon;timestamp;pressure;altitude;pressure_sealevel;temperature;humidity
19259;BME280;9763;48.780;9.212;2023-04-08T00:00:31;98638.59;;;12.69;54.97
19259;BME280;9763;48.780;9.212;2023-04-08T00:03:57;98635.25;;;12.67;55.30
19259;BME280;9763;48.780;9.212;2023-04-08T00:07:21;98636.91;;;12.68;55.27
19259;BME280;9763;48.780;9.212;2023-04-08T00:10:45;98644.75;;;12.68;54.84
19259;BME280;9763;48.780;9.212;2023-04-08T00:14:10;98645.72;;;12.67;55.20
19259;BME280;9763;48.780;9.212;2023-04-08T00:17:34;98644.91;;;12.67;54.82
19259;BME280;9763;48.780;9.212;2023-04-08T00:21:00;98643.22;;;12.66;55.16
19259;BME280;9763;48.780;9.212;2023-04-08T00:24:23;98639.03;;;12.63;55.58
19259;BME280;9763;48.780;9.212;2023-04-08T00:27:47;98642.69;;;12.60;55.65
19259;BME280;9763;48.780;9.212;2023-04-08T00:31:10;98648.13;;;12.57;55.12
19259;BME280;9763;48.780;9.212;2023-04-08T00:34:34;98639.97;;;12.49;55.32
19259;BME280;9763;48.780;9.212;2023-04-08T00:37:59;98648.88;;;12.47;55.48
19259;BME280;9763;48.780;9.212;2023-04-08T00:41:23;98644.69;;;12.44;55.83
19259;BME280;9763;48.780;9.212;2023-04-08T00:44:47;98654.22;;;12.45;55.62
19259;BME280;9763;48.780;9.212;2023-04-08T00:48:11;98657.75;;;12.44;55.83
19259;BME280;9763;48.780;9.212;2023-04-08T00:51:35;98659.53;;;12.44;55.77
19259;BME280;9763;48.780;9.212;2023-04-08T00:55:00;98656.81;;;12.45;55.63
19259;BME280;9763;48.780;9.212;2023-04-08T00:58:24;98664.69;;;12.45;55.91
19259;BME280;9763;48.780;9.212;2023-04-08T01:01:56;98660.28;;;12.46;56.06
19259;BME280;9763;48.780;9.212;2023-04-08T01:05:34;98668.97;;;12.46;55.35
19259;BME280;9763;48.780;9.212;2023-04-08T01:09:00;98665.41;;;12.47;55.99
19259;BME280;9763;48.780;9.212;2023-04-08T01:12:31;98661.22;;;12.45;55.85
19259;BME280;9763;48.780;9.212;2023-04-08T01:15:55;98659.53;;;12.44;55.86
19259;BME280;9763;48.780;9.212;2023-04-08T01:19:26;98658.59;;;12.45;55.52
19259;BME280;9763;48.780;9.212;2023-04-08T01:23:07;98662.28;;;12.42;55.78
19259;BME280;9763;48.780;9.212;2023-04-08T01:26:35;98665.13;;;12.39;56.17
19259;BME280;9763;48.780;9.212;2023-04-08T01:30:00;98670.44;;;12.38;55.93
19259;BME280;9763;48.780;9.212;2023-04-08T01:33:27;98659.25;;;12.36;56.40
19259;BME280;9763;48.780;9.212;2023-04-08T01:36:52;98656.72;;;12.34;56.04
19259;BME280;9763;48.780;9.212;2023-04-08T01:40:18;98663.84;;;12.32;56.46
19259;BME280;9763;48.780;9.212;2023-04-08T01:43:44;98657.66;;;12.33;56.29
19259;BME280;9763;48.780;9.212;2023-04-08T01:47:10;98656.97;;;12.31;56.15
19259;BME280;9763;48.780;9.212;2023-04-08T01:50:36;98660.41;;;12.32;56.45
19259;BME280;9763;48.780;9.212;2023-04-08T01:54:00;98650.03;;;12.30;56.56
19259;BME280;9763;48.780;9.212;2023-04-08T01:57:26;98658.19;;;12.25;56.86
19259;BME280;9763;48.780;9.212;2023-04-08T02:00:53;98653.91;;;12.24;56.60
19259;BME280;9763;48.780;9.212;2023-04-08T02:04:19;98659.97;;;12.25;56.22
19259;BME280;9763;48.780;9.212;2023-04-08T02:07:43;98659.97;;;12.25;56.89
19259;BME280;9763;48.780;9.212;2023-04-08T02:11:08;98661.00;;;12.22;56.42
19259;BME280;9763;48.780;9.212;2023-04-08T02:14:32;98664.66;;;12.20;56.63
19259;BME280;9763;48.780;9.212;2023-04-08T02:18:06;98665.00;;;12.15;56.82
19259;BME280;9763;48.780;9.212;2023-04-08T02:21:39;98658.09;;;12.14;56.83
19259;BME280;9763;48.780;9.212;2023-04-08T02:25:09;98656.50;;;12.12;56.81
19259;BME280;9763;48.780;9.212;2023-04-08T02:28:35;98659.03;;;12.13;57.07
19259;BME280;9763;48.780;9.212;2023-04-08T02:32:01;98660.91;;;12.11;56.88
19259;BME280;9763;48.780;9.212;2023-04-08T02:35:28;98659.22;;;12.10;56.45
19259;BME280;9763;48.780;9.212;2023-04-08T02:38:52;98655.03;;;12.08;56.55
19259;BME280;9763;48.780;9.212;2023-04-08T02:42:16;98659.56;;;12.06;56.86
19259;BME280;9763;48.780;9.212;2023-04-08T02:45:41;98653.47;;;12.05;56.83
19259;BME280;9763;48.780;9.212;2023-04-08T02:49:05;98660.59;;;12.03;56.94
19259;BME280;9763;48.780;9.212;2023-04-08T02:52:30;98662.56;;;12.00;57.33
19259;BME280;9763;48.780;9.212;2023-04-08T02:55:54;98657.53;;;11.97;57.00
19259;BME280;9763;48.780;9.212;2023-04-08T02:59:18;98662.16;;;11.93;57.01
19259;BME280;9763;48.780;9.212;2023-04-08T03:02:42;98655.22;;;11.92;57.34
19259;BME280;9763;48.780;9.212;2023-04-08T03:06:06;98662.25;;;11.92;57.27
19259;BME280;9763;48.780;9.212;2023-04-08T03:09:30;98657.94;;;11.90;57.07
19259;BME280;9763;48.780;9.212;2023-04-08T03:12:54;98660.66;;;11.89;57.30
19259;BME280;9763;48.780;9.212;2023-04-08T03:16:18;98662.44;;;11.88;56.98
19259;BME280;9763;48.780;9.212;2023-04-08T03:19:42;98659.09;;;11.86;57.63
19259;BME280;9763;48.780;9.212;2023-04-08T03:23:05;98661.78;;;11.85;57.09
19259;BME280;9763;48.780;9.212;2023-04-08T03:26:31;98659.28;;;11.83;57.47
19259;BME280;9763;48.780;9.212;2023-04-08T03:29:55;98661.09;;;11.83;57.25
19259;BME280;9763;48.780;9.212;2023-04-08T03:33:19;98658.56;;;11.81;57.55
19259;BME280;9763;48.780;9.212;2023-04-08T03:36:43;98665.66;;;11.79;57.83
19259;BME280;9763;48.780;9.212;2023-04-08T03:40:08;98671.75;;;11.80;57.38
19259;BME280;9763;48.780;9.212;2023-04-08T03:43:34;98670.06;;;11.79;57.78
19259;BME280;9763;48.780;9.212;2023-04-08T03:46:59;98669.03;;;11.81;57.13
19259;BME280;9763;48.780;9.212;2023-04-08T03:50:23;98673.00;;;11.87;57.45
19259;BME280;9763;48.780;9.212;2023-04-08T03:53:47;98675.22;;;11.93;57.26
19259;BME280;9763;48.780;9.212;2023-04-08T03:57:11;98669.56;;;11.99;57.16
19259;BME280;9763;48.780;9.212;2023-04-08T04:00:36;98670.31;;;12.01;56.87
19259;BME280;9763;48.780;9.212;2023-04-08T04:03:59;98669.47;;;12.01;56.61
19259;BME280;9763;48.780;9.212;2023-04-08T04:07:24;98673.88;;;12.00;57.19
19259;BME280;9763;48.780;9.212;2023-04-08T04:10:47;98667.69;;;12.01;56.80
19259;BME280;9763;48.780;9.212;2023-04-08T04:14:11;98674.06;;;11.97;56.90
19259;BME280;9763;48.780;9.212;2023-04-08T04:17:36;98677.75;;;11.95;57.32
19259;BME280;9763;48.780;9.212;2023-04-08T04:21:00;98670.94;;;11.92;57.39
19259;BME280;9763;48.780;9.212;2023-04-08T04:24:27;98664.31;;;11.86;57.07
19259;BME280;9763;48.780;9.212;2023-04-08T04:27:50;98668.09;;;11.82;57.25
19259;BME280;9763;48.780;9.212;2023-04-08T04:31:18;98676.22;;;11.78;57.60
19259;BME280;9763;48.780;9.212;2023-04-08T04:34:44;98673.88;;;11.73;57.48
19259;BME280;9763;48.780;9.212;2023-04-08T04:38:08;98668.31;;;11.65;57.63
19259;BME280;9763;48.780;9.212;2023-04-08T04:41:34;98673.22;;;11.57;57.76
19259;BME280;9763;48.780;9.212;2023-04-08T04:45:02;98677.88;;;11.52;57.65
19259;BME280;9763;48.780;9.212;2023-04-08T04:48:26;98686.00;;;11.47;57.65
19259;BME280;9763;48.780;9.212;2023-04-08T04:51:50;98691.34;;;11.46;57.88
19259;BME280;9763;48.780;9.212;2023-04-08T04:55:14;98695.94;;;11.42;57.46
19259;BME280;9763;48.780;9.212;2023-04-08T04:58:38;98697.91;;;11.39;57.47
19259;BME280;9763;48.780;9.212;2023-04-08T05:02:02;98700.59;;;11.37;57.24
19259;BME280;9763;48.780;9.212;2023-04-08T05:05:26;98708.75;;;11.33;57.50
19259;BME280;9763;48.780;9.212;2023-04-08T05:08:51;98706.97;;;11.33;57.56
19259;BME280;9763;48.780;9.212;2023-04-08T05:12:15;98715.66;;;11.34;57.51
19259;BME280;9763;48.780;9.212;2023-04-08T05:15:39;98720.22;;;11.30;57.48
19259;BME280;9763;48.780;9.212;2023-04-08T05:19:02;98719.66;;;11.25;57.92
19259;BME280;9763;48.780;9.212;2023-04-08T05:22:26;98714.53;;;11.24;57.83
19259;BME280;9763;48.780;9.212;2023-04-08T05:25:51;98720.50;;;11.26;57.40
19259;BME280;9763;48.780;9.212;2023-04-08T05:29:14;98720.50;;;11.26;57.82
19259;BME280;9763;48.780;9.212;2023-04-08T05:32:38;98722.09;;;11.28;57.43
19259;BME280;9763;48.780;9.212;2023-04-08T05:36:02;98727.31;;;11.28;57.58
19259;BME280;9763;48.780;9.212;2023-04-08T05:39:26;98732.28;;;11.33;57.69
19259;BME280;9763;48.780;9.212;2023-04-08T05:42:51;98736.91;;;11.42;57.76
19259;BME280;9763;48.780;9.212;2023-04-08T05:46:15;98738.94;;;11.51;57.69
19259;BME280;9763;48.780;9.212;2023-04-08T05:49:39;98731.56;;;11.58;57.47
19259;BME280;9763;48.780;9.212;2023-04-08T05:53:03;98737.31;;;11.63;57.54
19259;BME280;9763;48.780;9.212;2023-04-08T05:56:27;98744.88;;;11.67;57.50
19259;BME280;9763;48.780;9.212;2023-04-08T05:59:52;98752.41;;;11.72;57.39
19259;BME280;9763;48.780;9.212;2023-04-08T06:03:15;98749.78;;;11.72;57.88
19259;BME280;9763;48.780;9.212;2023-04-08T06:06:42;98753.00;;;11.77;57.47
19259;BME280;9763;48.780;9.212;2023-04-08T06:10:07;98761.59;;;11.79;57.36
19259;BME280;9763;48.780;9.212;2023-04-08T06:13:32;98757.94;;;11.81;57.57
19259;BME280;9763;48.780;9.212;2023-04-08T06:16:57;98759.94;;;11.90;57.52
19259;BME280;9763;48.780;9.212;2023-04-08T06:20:21;98769.06;;;11.98;57.40
19259;BME280;9763;48.780;9.212;2023-04-08T06:23:45;98763.53;;;12.02;57.30
19259;BME280;9763;48.780;9.212;2023-04-08T06:27:09;98763.13;;;12.08;57.04
19259;BME280;9763;48.780;9.212;2023-04-08T06:30:32;98767.03;;;12.15;56.93
19259;BME280;9763;48.780;9.212;2023-04-08T06:33:57;98771.84;;;12.21;57.19
19259;BME280;9763;48.780;9.212;2023-04-08T06:37:20;98769.78;;;12.26;56.76
19259;BME280;9763;48.780;9.212;2023-04-08T06:40:44;98775.44;;;12.33;56.96
19259;BME280;9763;48.780;9.212;2023-04-08T06:44:08;98782.06;;;12.39;57.16
19259;BME280;9763;48.780;9.212;2023-04-08T06:47:32;98783.41;;;12.44;56.90
19259;BME280;9763;48.780;9.212;2023-04-08T06:50:59;98778.19;;;12.44;57.08
19259;BME280;9763;48.780;9.212;2023-04-08T06:54:23;98785.31;;;12.42;57.39
19259;BME280;9763;48.780;9.212;2023-04-08T06:57:47;98788.25;;;12.38;57.68
19259;BME280;9763;48.780;9.212;2023-04-08T07:01:11;98790.97;;;12.36;57.29
19259;BME280;9763;48.780;9.212;2023-04-08T07:04:34;98792.53;;;12.39;57.46
19259;BME280;9763;48.780;9.212;2023-04-08T07:08:00;98788.66;;;12.44;57.47
19259;BME280;9763;48.780;9.212;2023-04-08T07:11:24;98802.00;;;12.54;57.43
19259;BME280;9763;48.780;9.212;2023-04-08T07:14:48;98795.41;;;12.61;57.06
19259;BME280;9763;48.780;9.212;2023-04-08T07:18:12;98796.88;;;12.65;57.13
19259;BME280;9763;48.780;9.212;2023-04-08T07:21:36;98800.00;;;12.70;57.13
19259;BME280;9763;48.780;9.212;2023-04-08T07:25:01;98768.56;;;12.57;57.02
19259;BME280;9763;48.780;9.212;2023-04-08T07:28:25;98806.09;;;12.83;56.66
19259;BME280;9763;48.780;9.212;2023-04-08T07:31:49;98798.78;;;12.88;56.94
19259;BME280;9763;48.780;9.212;2023-04-08T07:35:13;98795.63;;;12.96;57.09
19259;BME280;9763;48.780;9.212;2023-04-08T07:38:40;98801.41;;;13.14;57.04
19259;BME280;9763;48.780;9.212;2023-04-08T07:42:05;98802.00;;;13.43;56.66
19259;BME280;9763;48.780;9.212;2023-04-08T07:45:29;98810.44;;;13.72;56.71
19259;BME280;9763;48.780;9.212;2023-04-08T07:48:53;98811.63;;;13.91;56.24
19259;BME280;9763;48.780;9.212;2023-04-08T07:52:17;98811.63;;;14.15;56.30
19259;BME280;9763;48.780;9.212;2023-04-08T07:55:41;98807.22;;;14.39;55.76
19259;BME280;9763;48.780;9.212;2023-04-08T07:59:06;98802.03;;;14.51;55.98
19259;BME280;9763;48.780;9.212;2023-04-08T08:02:30;98802.75;;;14.53;55.86
19259;BME280;9763;48.780;9.212;2023-04-08T08:05:54;98804.94;;;14.59;55.64
19259;BME280;9763;48.780;9.212;2023-04-08T08:09:17;98811.28;;;14.67;55.50
19259;BME280;9763;48.780;9.212;2023-04-08T08:12:42;98816.78;;;14.75;55.22
19259;BME280;9763;48.780;9.212;2023-04-08T08:16:07;98824.94;;;14.84;55.63
19259;BME280;9763;48.780;9.212;2023-04-08T08:19:33;98823.06;;;14.97;55.26
19259;BME280;9763;48.780;9.212;2023-04-08T08:22:57;98826.66;;;15.07;55.18
19259;BME280;9763;48.780;9.212;2023-04-08T08:26:21;98825.09;;;15.16;54.59
19259;BME280;9763;48.780;9.212;2023-04-08T08:29:46;98823.81;;;15.21;55.06
19259;BME280;9763;48.780;9.212;2023-04-08T08:33:11;98826.19;;;15.35;55.04
19259;BME280;9763;48.780;9.212;2023-04-08T08:36:35;98826.47;;;15.55;54.79
19259;BME280;9763;48.780;9.212;2023-04-08T08:39:59;98828.22;;;15.76;54.17
19259;BME280;9763;48.780;9.212;2023-04-08T08:43:24;98825.81;;;15.84;53.80
19259;BME280;9763;48.780;9.212;2023-04-08T08:46:48;98834.41;;;15.98;53.91
19259;BME280;9763;48.780;9.212;2023-04-08T08:50:13;98836.03;;;16.21;53.98
19259;BME280;9763;48.780;9.212;2023-04-08T08:53:38;98828.13;;;16.85;53.89
19259;BME280;9763;48.780;9.212;2023-04-08T08:57:16;98820.47;;;17.63;53.33
19259;BME280;9763;48.780;9.212;2023-04-08T09:00:41;98832.03;;;18.31;53.13
19259;BME280;9763;48.780;9.212;2023-04-08T09:04:07;98830.94;;;18.82;52.35
19259;BME280;9763;48.780;9.212;2023-04-08T09:07:36;98833.47;;;19.30;52.06
19259;BME280;9763;48.780;9.212;2023-04-08T09:11:12;98837.47;;;19.44;50.61
19259;BME280;9763;48.780;9.212;2023-04-08T09:14:36;98833.72;;;19.37;50.22
19259;BME280;9763;48.780;9.212;2023-04-08T09:18:00;98841.59;;;19.66;50.53
19259;BME280;9763;48.780;9.212;2023-04-08T09:21:25;98833.03;;;19.99;49.88
19259;BME280;9763;48.780;9.212;2023-04-08T09:24:50;98842.81;;;20.17;49.85
19259;BME280;9763;48.780;9.212;2023-04-08T09:28:18;98838.13;;;20.38;49.15
19259;BME280;9763;48.780;9.212;2023-04-08T09:31:43;98833.72;;;20.64;49.58
19259;BME280;9763;48.780;9.212;2023-04-08T09:35:08;98839.44;;;20.95;49.38
19259;BME280;9763;48.780;9.212;2023-04-08T09:38:33;98826.75;;;21.25;48.37
19259;BME280;9763;48.780;9.212;2023-04-08T09:41:59;98835.19;;;21.54;48.71
19259;BME280;9763;48.780;9.212;2023-04-08T09:45:25;98811.63;;;22.01;47.56
19259;BME280;9763;48.780;9.212;2023-04-08T09:49:00;98836.19;;;22.70;47.22
19259;BME280;9763;48.780;9.212;2023-04-08T09:52:32;98821.84;;;23.19;46.84
19259;BME280;9763;48.780;9.212;2023-04-08T09:55:59;98822.06;;;23.73;45.97
19259;BME280;9763;48.780;9.212;2023-04-08T09:59:26;98815.78;;;23.97;44.64
19259;BME280;9763;48.780;9.212;2023-04-08T10:02:54;98825.97;;;23.93;44.24
19259;BME280;9763;48.780;9.212;2023-04-08T10:06:26;98834.31;;;24.21;44.85
19259;BME280;9763;48.780;9.212;2023-04-08T10:09:51;98831.50;;;24.91;44.15
19259;BME280;9763;48.780;9.212;2023-04-08T10:13:15;98816.31;;;25.59;42.90
19259;BME280;9763;48.780;9.212;2023-04-08T10:16:40;98823.44;;;25.66;42.32
19259;BME280;9763;48.780;9.212;2023-04-08T10:20:40;98827.78;;;25.15;41.83
19259;BME280;9763;48.780;9.212;2023-04-08T10:24:08;98829.50;;;24.25;43.04
19259;BME280;9763;48.780;9.212;2023-04-08T10:27:39;98824.34;;;23.21;43.00
19259;BME280;9763;48.780;9.212;2023-04-08T10:31:03;98823.84;;;22.36;43.33
19259;BME280;9763;48.780;9.212;2023-04-08T10:34:28;98834.59;;;21.68;44.07
19259;BME280;9763;48.780;9.212;2023-04-08T10:37:52;98835.84;;;21.04;44.19
19259;BME280;9763;48.780;9.212;2023-04-08T10:41:23;98846.84;;;20.48;44.43
19259;BME280;9763;48.780;9.212;2023-04-08T10:44:47;98838.06;;;20.02;44.19
19259;BME280;9763;48.780;9.212;2023-04-08T10:48:16;98837.41;;;19.63;44.42
19259;BME280;9763;48.780;9.212;2023-04-08T10:51:42;98832.63;;;19.30;44.80
19259;BME280;9763;48.780;9.212;2023-04-08T10:55:06;98843.88;;;18.95;45.11
19259;BME280;9763;48.780;9.212;2023-04-08T10:58:31;98839.44;;;18.66;44.95
19259;BME280;9763;48.780;9.212;2023-04-08T11:01:54;98840.66;;;18.43;45.13
19259;BME280;9763;48.780;9.212;2023-04-08T11:05:21;98847.59;;;18.25;45.38
19259;BME280;9763;48.780;9.212;2023-04-08T11:08:46;98845.06;;;18.14;45.01
19259;BME280;9763;48.780;9.212;2023-04-08T11:12:10;98842.84;;;18.09;45.01
19259;BME280;9763;48.780;9.212;2023-04-08T11:15:35;98848.13;;;18.09;45.24
19259;BME280;9763;48.780;9.212;2023-04-08T11:19:02;98829.88;;;17.96;45.01
19259;BME280;9763;48.780;9.212;2023-04-08T11:22:27;98836.41;;;18.02;45.14
19259;BME280;9763;48.780;9.212;2023-04-08T11:25:53;98843.25;;;18.14;45.08
19259;BME280;9763;48.780;9.212;2023-04-08T11:29:18;98843.13;;;18.16;44.51
19259;BME280;9763;48.780;9.212;2023-04-08T11:32:43;98840.63;;;18.14;44.30
19259;BME280;9763;48.780;9.212;2023-04-08T11:36:08;98835.63;;;18.11;45.03
19259;BME280;9763;48.780;9.212;2023-04-08T11:39:31;98840.34;;;18.08;44.51
19259;BME280;9763;48.780;9.212;2023-04-08T11:42:56;98840.47;;;17.96;44.75
19259;BME280;9763;48.780;9.212;2023-04-08T11:46:20;98835.28;;;17.85;44.43
19259;BME280;9763;48.780;9.212;2023-04-08T11:49:45;98834.97;;;17.79;44.46
19259;BME280;9763;48.780;9.212;2023-04-08T11:53:16;98831.91;;;17.74;44.68
19259;BME280;9763;48.780;9.212;2023-04-08T11:56:44;98825.03;;;17.61;44.62
19259;BME280;9763;48.780;9.212;2023-04-08T12:00:11;98825.44;;;17.57;44.38
19259;BME280;9763;48.780;9.212;2023-04-08T12:03:34;98832.25;;;17.59;44.58
19259;BME280;9763;48.780;9.212;2023-04-08T12:06:58;98841.41;;;17.55;45.00
19259;BME280;9763;48.780;9.212;2023-04-08T12:10:22;98842.91;;;17.48;44.60
19259;BME280;9763;48.780;9.212;2023-04-08T12:13:46;98844.66;;;17.38;44.83
19259;BME280;9763;48.780;9.212;2023-04-08T12:17:14;98840.88;;;17.31;44.42
19259;BME280;9763;48.780;9.212;2023-04-08T12:20:38;98846.56;;;17.26;44.73
19259;BME280;9763;48.780;9.212;2023-04-08T12:24:02;98840.16;;;17.29;44.68
19259;BME280;9763;48.780;9.212;2023-04-08T12:27:26;98852.00;;;17.35;44.63
19259;BME280;9763;48.780;9.212;2023-04-08T12:30:49;98845.22;;;17.42;44.29
19259;BME280;9763;48.780;9.212;2023-04-08T12:34:15;98844.16;;;17.54;44.67
19259;BME280;9763;48.780;9.212;2023-04-08T12:37:39;98847.97;;;17.61;44.12
19259;BME280;9763;48.780;9.212;2023-04-08T12:41:03;98843.97;;;17.67;44.33
19259;BME280;9763;48.780;9.212;2023-04-08T12:44:26;98845.78;;;17.66;44.38
19259;BME280;9763;48.780;9.212;2023-04-08T12:47:50;98848.72;;;17.73;43.85
19259;BME280;9763;48.780;9.212;2023-04-08T12:51:15;98844.44;;;17.81;44.08
19259;BME280;9763;48.780;9.212;2023-04-08T12:54:39;98848.75;;;17.82;43.64
19259;BME280;9763;48.780;9.212;2023-04-08T12:58:03;98847.47;;;17.77;43.82
19259;BME280;9763;48.780;9.212;2023-04-08T13:01:28;98842.31;;;17.75;43.61
19259;BME280;9763;48.780;9.212;2023-04-08T13:04:52;98844.88;;;17.86;43.81
19259;BME280;9763;48.780;9.212;2023-04-08T13:08:18;98835.72;;;18.00;43.49
19259;BME280;9763;48.780;9.212;2023-04-08T13:11:41;98846.19;;;18.11;43.60
19259;BME280;9763;48.780;9.212;2023-04-08T13:15:06;98844.66;;;18.09;43.44
19259;BME280;9763;48.780;9.212;2023-04-08T13:18:31;98837.56;;;18.09;43.33
19259;BME280;9763;48.780;9.212;2023-04-08T13:21:54;98831.56;;;18.07;43.38
19259;BME280;9763;48.780;9.212;2023-04-08T13:25:20;98836.16;;;18.05;43.82
19259;BME280;9763;48.780;9.212;2023-04-08T13:28:43;98840.88;;;18.02;43.71
19259;BME280;9763;48.780;9.212;2023-04-08T13:32:18;98831.56;;;17.97;43.36
19259;BME280;9763;48.780;9.212;2023-04-08T13:35:42;98843.38;;;17.93;43.54
19259;BME280;9763;48.780;9.212;2023-04-08T13:39:06;98844.31;;;17.83;43.42
19259;BME280;9763;48.780;9.212;2023-04-08T13:42:31;98842.91;;;17.79;43.60
19259;BME280;9763;48.780;9.212;2023-04-08T13:45:55;98838.44;;;17.70;43.90
19259;BME280;9763;48.780;9.212;2023-04-08T13:49:20;98837.00;;;17.66;43.68
19259;BME280;9763;48.780;9.212;2023-04-08T13:52:44;98835.09;;;17.68;43.57
19259;BME280;9763;48.780;9.212;2023-04-08T13:56:07;98839.13;;;17.72;43.24
19259;BME280;9763;48.780;9.212;2023-04-08T13:59:33;98838.88;;;17.75;43.70
19259;BME280;9763;48.780;9.212;2023-04-08T14:02:57;98837.75;;;17.77;43.73
19259;BME280;9763;48.780;9.212;2023-04-08T14:06:20;98841.09;;;17.79;43.25
19259;BME280;9763;48.780;9.212;2023-04-08T14:09:44;98833.03;;;17.81;43.73
19259;BME280;9763;48.780;9.212;2023-04-08T14:13:08;98833.31;;;17.78;43.70
19259;BME280;9763;48.780;9.212;2023-04-08T14:16:32;98837.75;;;17.77;43.28
19259;BME280;9763;48.780;9.212;2023-04-08T14:19:57;98833.63;;;17.84;43.45
19259;BME280;9763;48.780;9.212;2023-04-08T14:23:22;98837.13;;;17.94;43.20
19259;BME280;9763;48.780;9.212;2023-04-08T14:26:46;98826.28;;;17.97;42.99
19259;BME280;9763;48.780;9.212;2023-04-08T14:30:10;98835.81;;;17.79;42.67
19259;BME280;9763;48.780;9.212;2023-04-08T14:33:35;98837.53;;;17.59;43.03
19259;BME280;9763;48.780;9.212;2023-04-08T14:37:01;98839.69;;;17.45;43.75
19259;BME280;9763;48.780;9.212;2023-04-08T14:40:25;98832.94;;;17.31;43.32
19259;BME280;9763;48.780;9.212;2023-04-08T14:43:49;98851.03;;;17.15;43.46
19259;BME280;9763;48.780;9.212;2023-04-08T14:47:12;98842.00;;;17.08;43.94
19259;BME280;9763;48.780;9.212;2023-04-08T14:50:38;98850.63;;;17.10;43.58
19259;BME280;9763;48.780;9.212;2023-04-08T14:54:02;98847.84;;;17.11;43.62
19259;BME280;9763;48.780;9.212;2023-04-08T14:57:26;98848.94;;;17.09;43.59
19259;BME280;9763;48.780;9.212;2023-04-08T15:00:50;98855.31;;;17.06;43.62
19259;BME280;9763;48.780;9.212;2023-04-08T15:04:13;98859.03;;;17.04;43.83
19259;BME280;9763;48.780;9.212;2023-04-08T15:07:39;98859.44;;;16.99;43.63
19259;BME280;9763;48.780;9.212;2023-04-08T15:11:02;98861.13;;;17.00;44.09
19259;BME280;9763;48.780;9.212;2023-04-08T15:14:26;98864.25;;;16.94;43.44
19259;BME280;9763;48.780;9.212;2023-04-08T15:17:50;98870.06;;;16.88;43.85
19259;BME280;9763;48.780;9.212;2023-04-08T15:21:14;98860.59;;;16.85;44.10
19259;BME280;9763;48.780;9.212;2023-04-08T15:24:39;98869.94;;;16.89;43.55
19259;BME280;9763;48.780;9.212;2023-04-08T15:28:03;98869.53;;;16.94;43.78
19259;BME280;9763;48.780;9.212;2023-04-08T15:31:27;98867.13;;;16.91;43.57
19259;BME280;9763;48.780;9.212;2023-04-08T15:34:51;98875.69;;;16.83;44.02
19259;BME280;9763;48.780;9.212;2023-04-08T15:38:15;98879.09;;;16.74;43.71
19259;BME280;9763;48.780;9.212;2023-04-08T15:41:41;98880.81;;;16.64;43.65
19259;BME280;9763;48.780;9.212;2023-04-08T15:45:05;98869.47;;;16.52;43.77
19259;BME280;9763;48.780;9.212;2023-04-08T15:48:29;98870.34;;;16.42;43.78
19259;BME280;9763;48.780;9.212;2023-04-08T15:51:54;98881.25;;;16.37;44.08
19259;BME280;9763;48.780;9.212;2023-04-08T15:55:18;98885.06;;;16.33;43.86
19259;BME280;9763;48.780;9.212;2023-04-08T15:58:43;98878.75;;;16.25;44.08
19259;BME280;9763;48.780;9.212;2023-04-08T16:02:07;98881.31;;;16.15;44.16
19259;BME280;9763;48.780;9.212;2023-04-08T16:05:31;98889.69;;;16.09;44.07
19259;BME280;9763;48.780;9.212;2023-04-08T16:08:57;98890.63;;;16.08;44.11
19259;BME280;9763;48.780;9.212;2023-04-08T16:12:21;98888.72;;;16.10;44.52
19259;BME280;9763;48.780;9.212;2023-04-08T16:15:48;98896.75;;;16.08;44.07
19259;BME280;9763;48.780;9.212;2023-04-08T16:19:12;98898.66;;;16.06;44.40
19259;BME280;9763;48.780;9.212;2023-04-08T16:22:36;98906.09;;;16.01;44.49
19259;BME280;9763;48.780;9.212;2023-04-08T16:26:00;98897.00;;;15.94;44.22
19259;BME280;9763;48.780;9.212;2023-04-08T16:29:23;98905.06;;;15.81;44.23
19259;BME280;9763;48.780;9.212;2023-04-08T16:32:49;98913.06;;;15.69;44.76
19259;BME280;9763;48.780;9.212;2023-04-08T16:36:13;98918.56;;;15.55;44.92
19259;BME280;9763;48.780;9.212;2023-04-08T16:39:37;98915.88;;;15.43;44.70
19259;BME280;9763;48.780;9.212;2023-04-08T16:43:00;98914.78;;;15.35;45.25
19259;BME280;9763;48.780;9.212;2023-04-08T16:46:25;98920.72;;;15.26;44.73
19259;BME280;9763;48.780;9.212;2023-04-08T16:49:51;98922.91;;;15.21;45.21
19259;BME280;9763;48.780;9.212;2023-04-08T16:53:15;98916.88;;;15.07;45.13
19259;BME280;9763;48.780;9.212;2023-04-08T16:56:39;98932.41;;;15.10;44.84
19259;BME280;9763;48.780;9.212;2023-04-08T17:00:07;98941.50;;;15.06;45.24
19259;BME280;9763;48.780;9.212;2023-04-08T17:03:32;98935.84;;;15.00;45.06
19259;BME280;9763;48.780;9.212;2023-04-08T17:06:57;98931.78;;;14.96;44.86
19259;BME280;9763;48.780;9.212;2023-04-08T17:10:22;98934.53;;;14.94;45.08
19259;BME280;9763;48.780;9.212;2023-04-08T17:13:46;98943.34;;;14.93;45.39
19259;BME280;9763;48.780;9.212;2023-04-08T17:17:09;98936.75;;;14.88;45.03
19259;BME280;9763;48.780;9.212;2023-04-08T17:20:33;98946.69;;;14.84;45.19
19259;BME280;9763;48.780;9.212;2023-04-08T17:23:58;98948.69;;;14.81;45.66
19259;BME280;9763;48.780;9.212;2023-04-08T17:27:22;98951.53;;;14.77;45.19
19259;BME280;9763;48.780;9.212;2023-04-08T17:30:46;98943.03;;;14.74;45.13
19259;BME280;9763;48.780;9.212;2023-04-08T17:34:10;98955.56;;;14.70;45.34
19259;BME280;9763;48.780;9.212;2023-04-08T17:37:34;98956.09;;;14.63;45.44
19259;BME280;9763;48.780;9.212;2023-04-08T17:40:59;98969.47;;;14.60;45.80
19259;BME280;9763;48.780;9.212;2023-04-08T17:44:23;98961.94;;;14.55;45.39
19259;BME280;9763;48.780;9.212;2023-04-08T17:47:51;98972.84;;;14.49;45.40
19259;BME280;9763;48.780;9.212;2023-04-08T17:51:15;98973.31;;;14.43;45.41
19259;BME280;9763;48.780;9.212;2023-04-08T17:54:39;98973.53;;;14.40;45.89
19259;BME280;9763;48.780;9.212;2023-04-08T17:58:04;98966.81;;;14.36;45.66
19259;BME280;9763;48.780;9.212;2023-04-08T18:01:28;98977.63;;;14.31;45.64
19259;BME280;9763;48.780;9.212;2023-04-08T18:04:52;98977.09;;;14.26;45.63
19259;BME280;9763;48.780;9.212;2023-04-08T18:08:16;98978.19;;;14.24;46.13
19259;BME280;9763;48.780;9.212;2023-04-08T18:11:40;98977.44;;;14.22;45.97
19259;BME280;9763;48.780;9.212;2023-04-08T18:15:06;98977.66;;;14.19;45.99
19259;BME280;9763;48.780;9.212;2023-04-08T18:18:30;98983.09;;;14.16;46.03